createdAt,value
2023-03-06T00:00:00.761Z,0.00
2023-03-06T00:01:00.753Z,0.00
2023-03-06T00:02:00.740Z,0.00
2023-03-06T00:03:00.750Z,0.00
2023-03-06T00:04:00.788Z,0.00
2023-03-06T00:05:00.706Z,0.00
2023-03-06T00:06:00.772Z,0.00
2023-03-06T00:07:00.708Z,0.00
2023-03-06T00:08:00.914Z,0.00
2023-03-06T00:09:00.661Z,0.00
2023-03-06T00:10:00.636Z,0.00
2023-03-06T00:11:00.637Z,0.00
2023-03-06T00:12:00.617Z,0.00
2023-03-06T00:13:00.626Z,0.00
2023-03-06T00:14:00.619Z,0.00
2023-03-06T00:15:00.597Z,0.00
2023-03-06T00:16:00.654Z,0.00
2023-03-06T00:17:00.577Z,0.00
2023-03-06T00:18:00.547Z,0.00
2023-03-06T00:19:00.562Z,0.00
2023-03-06T00:20:00.566Z,0.00
2023-03-06T00:21:00.553Z,0.00
2023-03-06T00:22:00.518Z,0.00
2023-03-06T00:23:00.517Z,0.00
2023-03-06T00:24:00.538Z,0.00
2023-03-06T00:25:00.468Z,0.00
2023-03-06T00:26:00.475Z,0.00
2023-03-06T00:27:00.487Z,0.00
2023-03-06T00:28:00.447Z,0.00
2023-03-06T00:29:00.427Z,0.00
2023-03-06T00:30:00.465Z,0.00
2023-03-06T00:31:00.439Z,0.00
2023-03-06T00:32:00.484Z,0.00
2023-03-06T00:33:00.405Z,0.00
2023-03-06T00:34:00.400Z,0.00
2023-03-06T00:35:00.362Z,0.00
2023-03-06T00:36:00.367Z,0.00
2023-03-06T00:37:00.333Z,0.00
2023-03-06T00:38:00.326Z,0.00
2023-03-06T00:39:00.337Z,0.00
2023-03-06T00:40:00.297Z,0.00
2023-03-06T00:41:00.297Z,0.00
2023-03-06T00:42:00.316Z,0.00
2023-03-06T00:43:00.273Z,0.00
2023-03-06T00:44:00.267Z,0.00
2023-03-06T00:45:00.260Z,0.00
2023-03-06T00:46:00.285Z,0.00
2023-03-06T00:47:00.237Z,0.00
2023-03-06T00:48:00.225Z,0.00
2023-03-06T00:49:00.200Z,0.00
2023-03-06T00:50:00.421Z,0.00
2023-03-06T00:51:00.186Z,0.00
2023-03-06T00:52:00.186Z,0.00
2023-03-06T00:53:00.189Z,0.00
2023-03-06T00:54:00.130Z,0.00
2023-03-06T00:55:00.167Z,0.00
2023-03-06T00:56:00.125Z,0.00
2023-03-06T00:57:00.131Z,0.00
2023-03-06T00:58:00.105Z,0.00
2023-03-06T00:59:00.109Z,0.00
2023-03-06T01:00:00.104Z,0.00
2023-03-06T01:01:00.111Z,0.00
2023-03-06T01:02:00.129Z,0.00
2023-03-06T01:03:00.039Z,0.00
2023-03-06T01:04:00.053Z,0.00
2023-03-06T01:05:00.020Z,0.00
2023-03-06T01:06:00.004Z,0.00
2023-03-06T01:06:59.997Z,0.00
2023-03-06T01:07:59.972Z,0.00
2023-03-06T01:08:59.970Z,0.00
2023-03-06T01:09:59.975Z,0.00
2023-03-06T01:10:59.940Z,0.00
2023-03-06T01:11:59.926Z,0.00
2023-03-06T01:12:59.926Z,0.00
2023-03-06T01:13:59.906Z,0.00
2023-03-06T01:14:59.906Z,0.00
2023-03-06T01:15:59.916Z,0.00
2023-03-06T01:16:59.875Z,0.00
2023-03-06T01:17:59.864Z,0.00
2023-03-06T01:18:59.849Z,0.00
2023-03-06T01:19:59.853Z,0.00
2023-03-06T01:20:59.816Z,0.00
2023-03-06T01:21:59.837Z,0.00
2023-03-06T01:22:59.823Z,0.00
2023-03-06T01:23:59.800Z,0.00
2023-03-06T01:24:59.782Z,0.00
2023-03-06T01:25:59.763Z,0.00
2023-03-06T01:26:59.760Z,0.00
2023-03-06T01:27:59.799Z,0.00
2023-03-06T01:28:59.974Z,0.00
2023-03-06T01:29:59.713Z,0.00
2023-03-06T01:30:59.702Z,0.00
2023-03-06T01:31:59.895Z,0.00
2023-03-06T01:32:59.698Z,0.00
2023-03-06T01:33:59.702Z,0.00
2023-03-06T01:34:59.683Z,0.00
2023-03-06T01:35:59.652Z,0.00
2023-03-06T01:36:59.644Z,0.00
2023-03-06T01:37:59.635Z,0.00
2023-03-06T01:38:59.633Z,0.00
2023-03-06T01:39:59.634Z,0.00
2023-03-06T01:40:59.855Z,0.00
2023-03-06T01:41:59.594Z,0.00
2023-03-06T01:42:59.586Z,0.00
2023-03-06T01:43:59.583Z,0.00
2023-03-06T01:44:59.586Z,0.00
2023-03-06T01:45:59.568Z,0.00
2023-03-06T01:46:59.549Z,0.00
2023-03-06T01:47:59.543Z,0.00
2023-03-06T01:48:59.523Z,0.00
2023-03-06T01:49:59.499Z,0.00
2023-03-06T01:50:59.507Z,0.00
2023-03-06T01:51:59.486Z,0.00
2023-03-06T01:52:59.476Z,0.00
2023-03-06T01:53:59.717Z,0.00
2023-03-06T01:54:59.437Z,0.00
2023-03-06T01:55:59.462Z,0.00
2023-03-06T01:56:59.436Z,0.00
2023-03-06T01:57:59.418Z,0.00
2023-03-06T01:58:59.417Z,0.00
2023-03-06T01:59:59.412Z,0.00
2023-03-06T02:00:59.407Z,0.00
2023-03-06T02:01:59.405Z,0.00
2023-03-06T02:02:59.365Z,0.00
2023-03-06T02:03:59.360Z,0.00
2023-03-06T02:04:59.335Z,0.00
2023-03-06T02:05:59.320Z,0.00
2023-03-06T02:06:59.307Z,0.00
2023-03-06T02:07:59.337Z,0.00
2023-03-06T02:08:59.299Z,0.00
2023-03-06T02:09:59.277Z,0.00
2023-03-06T02:10:59.276Z,0.00
2023-03-06T02:11:59.262Z,0.00
2023-03-06T02:12:59.271Z,0.00
2023-03-06T02:13:59.229Z,0.00
2023-03-06T02:14:59.229Z,0.00
2023-03-06T02:15:59.238Z,0.00
2023-03-06T02:16:59.224Z,0.00
2023-03-06T02:17:59.188Z,0.00
2023-03-06T02:18:59.222Z,0.00
2023-03-06T02:19:59.173Z,0.00
2023-03-06T02:20:59.170Z,0.00
2023-03-06T02:21:59.138Z,0.00
2023-03-06T02:22:59.155Z,0.00
2023-03-06T02:23:59.133Z,0.00
2023-03-06T02:24:59.128Z,0.00
2023-03-06T02:25:59.349Z,0.00
2023-03-06T02:26:59.099Z,0.00
2023-03-06T02:27:59.078Z,0.00
2023-03-06T02:28:59.077Z,0.00
2023-03-06T02:29:59.069Z,0.00
2023-03-06T02:30:59.072Z,0.00
2023-03-06T02:31:59.190Z,0.00
2023-03-06T02:32:59.032Z,0.00
2023-03-06T02:33:59.020Z,0.00
2023-03-06T02:34:59.008Z,0.00
2023-03-06T02:35:59.067Z,0.00
2023-03-06T02:36:58.990Z,0.00
2023-03-06T02:37:59.219Z,0.00
2023-03-06T02:38:58.963Z,0.00
2023-03-06T02:39:58.959Z,0.00
2023-03-06T02:40:58.933Z,0.00
2023-03-06T02:41:58.941Z,0.00
2023-03-06T02:42:58.920Z,0.00
2023-03-06T02:43:58.917Z,0.00
2023-03-06T02:44:58.886Z,0.00
2023-03-06T02:45:58.916Z,0.00
2023-03-06T02:46:58.884Z,0.00
2023-03-06T02:47:58.862Z,0.00
2023-03-06T02:48:58.837Z,0.00
2023-03-06T02:49:58.828Z,0.00
2023-03-06T02:50:58.818Z,0.00
2023-03-06T02:51:58.809Z,0.00
2023-03-06T02:52:58.824Z,0.00
2023-03-06T02:53:58.781Z,0.00
2023-03-06T02:54:59.012Z,0.00
2023-03-06T02:55:58.767Z,0.00
2023-03-06T02:56:58.765Z,0.00
2023-03-06T02:57:58.757Z,0.00
2023-03-06T02:58:58.720Z,0.00
2023-03-06T02:59:58.730Z,0.00
2023-03-06T03:00:58.704Z,0.00
2023-03-06T03:02:05.818Z,0.00
2023-03-06T03:02:58.683Z,0.00
2023-03-06T03:03:58.689Z,0.00
2023-03-06T03:04:58.658Z,0.00
2023-03-06T03:05:58.638Z,0.00
2023-03-06T03:06:58.640Z,0.00
2023-03-06T03:07:58.626Z,0.00
2023-03-06T03:08:58.604Z,0.00
2023-03-06T03:09:58.598Z,0.00
2023-03-06T03:10:58.586Z,0.00
2023-03-06T03:11:58.570Z,0.00
2023-03-06T03:12:58.569Z,0.00
2023-03-06T03:13:58.546Z,0.00
2023-03-06T03:14:58.556Z,0.00
2023-03-06T03:15:58.548Z,0.00
2023-03-06T03:16:58.506Z,0.00
2023-03-06T03:17:58.496Z,0.00
2023-03-06T03:18:58.488Z,0.00
2023-03-06T03:19:58.482Z,0.00
2023-03-06T03:20:58.498Z,0.00
2023-03-06T03:21:58.460Z,0.00
2023-03-06T03:22:58.452Z,0.00
2023-03-06T03:23:58.431Z,0.00
2023-03-06T03:24:58.430Z,0.00
2023-03-06T03:25:58.409Z,0.00
2023-03-06T03:26:58.438Z,0.00
2023-03-06T03:27:58.390Z,0.00
2023-03-06T03:28:58.380Z,0.00
2023-03-06T03:29:58.386Z,0.00
2023-03-06T03:30:58.387Z,0.00
2023-03-06T03:31:58.349Z,0.00
2023-03-06T03:32:58.361Z,0.00
2023-03-06T03:33:58.322Z,0.00
2023-03-06T03:34:58.321Z,0.00
2023-03-06T03:35:58.311Z,0.00
2023-03-06T03:36:58.289Z,0.00
2023-03-06T03:37:58.302Z,0.00
2023-03-06T03:38:58.260Z,0.00
2023-03-06T03:39:58.260Z,0.00
2023-03-06T03:40:58.240Z,0.00
2023-03-06T03:41:58.235Z,0.00
2023-03-06T03:42:58.221Z,0.00
2023-03-06T03:43:58.223Z,0.00
2023-03-06T03:44:58.205Z,0.00
2023-03-06T03:45:58.184Z,0.00
2023-03-06T03:46:58.181Z,0.00
2023-03-06T03:47:58.161Z,0.00
2023-03-06T03:48:58.218Z,0.00
2023-03-06T03:49:58.144Z,0.00
2023-03-06T03:50:58.136Z,0.00
2023-03-06T03:51:58.111Z,0.00
2023-03-06T03:52:58.112Z,0.00
2023-03-06T03:53:58.118Z,0.00
2023-03-06T03:54:58.126Z,0.00
2023-03-06T03:55:58.090Z,0.00
2023-03-06T03:56:58.067Z,0.00
2023-03-06T03:57:58.048Z,0.00
2023-03-06T03:58:58.037Z,0.00
2023-03-06T03:59:58.027Z,0.00
2023-03-06T04:00:58.028Z,0.00
2023-03-06T04:01:58.004Z,0.00
2023-03-06T04:02:58.002Z,0.00
2023-03-06T04:03:57.981Z,0.00
2023-03-06T04:04:58.034Z,0.00
2023-03-06T04:05:58.026Z,0.00
2023-03-06T04:06:57.962Z,0.00
2023-03-06T04:07:57.934Z,0.00
2023-03-06T04:08:57.918Z,0.00
2023-03-06T04:09:57.906Z,0.00
2023-03-06T04:10:57.901Z,0.00
2023-03-06T04:11:57.884Z,0.00
2023-03-06T04:12:57.903Z,0.00
2023-03-06T04:13:57.865Z,0.00
2023-03-06T04:14:57.877Z,0.00
2023-03-06T04:15:57.898Z,0.00
2023-03-06T04:16:57.826Z,0.00
2023-03-06T04:17:57.815Z,0.00
2023-03-06T04:18:57.833Z,0.00
2023-03-06T04:19:57.806Z,0.00
2023-03-06T04:20:57.788Z,0.00
2023-03-06T04:21:57.773Z,0.00
2023-03-06T04:22:57.766Z,0.00
2023-03-06T04:23:57.766Z,0.00
2023-03-06T04:24:57.744Z,0.00
2023-03-06T04:25:57.723Z,0.00
2023-03-06T04:26:57.727Z,0.00
2023-03-06T04:27:57.703Z,0.00
2023-03-06T04:28:57.684Z,0.00
2023-03-06T04:29:57.706Z,0.00
2023-03-06T04:30:57.681Z,0.00
2023-03-06T04:31:57.655Z,0.00
2023-03-06T04:32:57.662Z,0.00
2023-03-06T04:33:57.639Z,0.00
2023-03-06T04:34:57.625Z,0.00
2023-03-06T04:35:57.699Z,0.00
2023-03-06T04:36:57.612Z,0.00
2023-03-06T04:37:57.585Z,0.00
2023-03-06T04:38:57.637Z,0.00
2023-03-06T04:39:57.568Z,0.00
2023-03-06T04:40:57.589Z,0.00
2023-03-06T04:41:57.547Z,0.00
2023-03-06T04:42:57.538Z,0.00
2023-03-06T04:43:57.525Z,0.00
2023-03-06T04:44:57.532Z,0.00
2023-03-06T04:45:57.526Z,0.00
2023-03-06T04:46:57.519Z,0.00
2023-03-06T04:47:57.477Z,0.00
2023-03-06T04:48:57.480Z,0.00
2023-03-06T04:49:57.460Z,0.00
2023-03-06T04:50:57.448Z,0.00
2023-03-06T04:51:57.439Z,0.00
2023-03-06T04:52:57.436Z,0.00
2023-03-06T04:53:57.406Z,0.00
2023-03-06T04:54:57.429Z,0.00
2023-03-06T04:55:57.385Z,0.00
2023-03-06T04:56:57.384Z,0.00
2023-03-06T04:57:57.418Z,0.00
2023-03-06T04:58:57.380Z,0.00
2023-03-06T04:59:57.350Z,0.00
2023-03-06T05:00:57.426Z,0.00
2023-03-06T05:01:57.379Z,0.00
2023-03-06T05:02:57.372Z,0.00
2023-03-06T05:03:57.312Z,0.00
2023-03-06T05:04:57.361Z,0.00
2023-03-06T05:05:57.272Z,0.00
2023-03-06T05:06:57.272Z,0.00
2023-03-06T05:07:57.265Z,0.00
2023-03-06T05:08:57.231Z,0.00
2023-03-06T05:09:57.243Z,0.00
2023-03-06T05:10:57.241Z,0.00
2023-03-06T05:11:57.200Z,0.00
2023-03-06T05:12:57.194Z,0.00
2023-03-06T05:13:57.180Z,0.00
2023-03-06T05:14:57.191Z,0.00
2023-03-06T05:15:57.160Z,0.00
2023-03-06T05:16:57.141Z,0.00
2023-03-06T05:17:57.142Z,0.00
2023-03-06T05:18:57.118Z,0.00
2023-03-06T05:19:57.110Z,0.00
2023-03-06T05:20:57.119Z,0.00
2023-03-06T05:21:57.088Z,0.00
2023-03-06T05:22:57.078Z,0.00
2023-03-06T05:23:57.067Z,0.00
2023-03-06T05:24:57.081Z,0.00
2023-03-06T05:25:57.039Z,0.00
2023-03-06T05:26:57.039Z,0.00
2023-03-06T05:27:57.030Z,0.00
2023-03-06T05:28:57.007Z,0.00
2023-03-06T05:29:57.020Z,0.00
2023-03-06T05:30:56.987Z,0.00
2023-03-06T05:31:57.081Z,0.00
2023-03-06T05:32:56.958Z,0.00
2023-03-06T05:33:56.967Z,0.00
2023-03-06T05:34:56.936Z,0.00
2023-03-06T05:35:56.947Z,4.00
2023-03-06T05:36:56.924Z,4.00
2023-03-06T05:37:56.938Z,0.00
2023-03-06T05:38:56.889Z,4.00
2023-03-06T05:39:56.889Z,8.00
2023-03-06T05:40:56.879Z,4.00
2023-03-06T05:41:56.868Z,8.00
2023-03-06T05:42:56.862Z,8.00
2023-03-06T05:43:56.864Z,8.00
2023-03-06T05:44:56.838Z,8.00
2023-03-06T05:45:56.922Z,8.00
2023-03-06T05:46:56.812Z,12.00
2023-03-06T05:47:56.799Z,16.00
2023-03-06T05:48:56.784Z,20.00
2023-03-06T05:49:56.792Z,24.00
2023-03-06T05:50:56.772Z,24.00
2023-03-06T05:51:56.756Z,28.00
2023-03-06T05:52:56.741Z,32.00
2023-03-06T05:53:56.732Z,40.00
2023-03-06T05:54:56.739Z,48.00
2023-03-06T05:55:56.700Z,52.00
2023-03-06T05:56:56.690Z,56.00
2023-03-06T05:57:56.691Z,68.00
2023-03-06T05:58:56.669Z,76.00
2023-03-06T05:59:56.657Z,80.00
2023-03-06T06:00:56.696Z,92.00
2023-03-06T06:01:56.723Z,100.00
2023-03-06T06:02:56.620Z,112.00
2023-03-06T06:03:56.641Z,128.00
2023-03-06T06:04:56.596Z,140.00
2023-03-06T06:05:56.588Z,156.00
2023-03-06T06:06:56.620Z,176.00
2023-03-06T06:07:56.568Z,196.00
2023-03-06T06:08:56.556Z,220.00
2023-03-06T06:09:56.551Z,244.00
2023-03-06T06:10:56.537Z,272.00
2023-03-06T06:11:56.547Z,304.00
2023-03-06T06:12:56.507Z,332.00
2023-03-06T06:13:56.510Z,360.00
2023-03-06T06:14:56.486Z,392.00
2023-03-06T06:15:56.562Z,424.00
2023-03-06T06:16:56.465Z,460.00
2023-03-06T06:17:56.495Z,500.00
2023-03-06T06:18:56.444Z,544.00
2023-03-06T06:19:56.433Z,584.00
2023-03-06T06:20:56.425Z,628.00
2023-03-06T06:21:56.404Z,672.00
2023-03-06T06:22:56.398Z,720.00
2023-03-06T06:23:56.403Z,772.00
2023-03-06T06:24:56.379Z,828.00
2023-03-06T06:25:56.366Z,880.00
2023-03-06T06:26:56.345Z,940.00
2023-03-06T06:27:56.346Z,1000.00
2023-03-06T06:28:56.936Z,1068.00
2023-03-06T06:29:56.334Z,1132.00
2023-03-06T06:30:56.822Z,1204.00
2023-03-06T06:31:56.304Z,1276.00
2023-03-06T06:32:56.287Z,1348.00
2023-03-06T06:33:56.276Z,1420.00
2023-03-06T06:34:56.268Z,1496.00
2023-03-06T06:35:56.685Z,1568.00
2023-03-06T06:36:56.233Z,1632.00
2023-03-06T06:37:56.256Z,1692.00
2023-03-06T06:38:56.213Z,1764.00
2023-03-06T06:39:56.204Z,1832.00
2023-03-06T06:41:30.763Z,1888.00
2023-03-06T06:42:09.527Z,1944.00
2023-03-06T06:42:57.175Z,1992.00
2023-03-06T06:43:58.673Z,2024.00
2023-03-06T06:44:56.143Z,2060.00
2023-03-06T06:46:08.869Z,2088.00
2023-03-06T06:47:21.824Z,2088.00
2023-03-06T06:47:57.171Z,2068.00
2023-03-06T06:48:56.102Z,2044.00
2023-03-06T06:49:56.104Z,2040.00
2023-03-06T06:50:56.103Z,2060.00
2023-03-06T06:51:56.072Z,2096.00
2023-03-06T06:52:56.116Z,2124.00
2023-03-06T06:53:56.044Z,2144.00
2023-03-06T06:54:56.034Z,2176.00
2023-03-06T06:55:56.023Z,2240.00
2023-03-06T06:56:56.013Z,2340.00
2023-03-06T06:57:56.012Z,2460.00
2023-03-06T06:59:01.338Z,2592.00
2023-03-06T06:59:56.981Z,2708.00
2023-03-06T07:00:55.965Z,2836.00
2023-03-06T07:01:55.964Z,2944.00
2023-03-06T07:02:55.943Z,3028.00
2023-03-06T07:03:55.978Z,3060.00
2023-03-06T07:05:04.340Z,3072.00
2023-03-06T07:05:56.913Z,3100.00
2023-03-06T07:06:55.901Z,3172.00
2023-03-06T07:07:55.892Z,3296.00
2023-03-06T07:08:56.668Z,3452.00
2023-03-06T07:09:55.871Z,3636.00
2023-03-06T07:10:55.892Z,3800.00
2023-03-06T07:11:55.846Z,4008.00
2023-03-06T07:12:55.837Z,4168.00
2023-03-06T07:13:55.821Z,4280.00
2023-03-06T07:14:55.811Z,4360.00
2023-03-06T07:15:55.852Z,4384.00
2023-03-06T07:16:55.801Z,4368.00
2023-03-06T07:17:55.788Z,4320.00
2023-03-06T07:18:55.767Z,4268.00
2023-03-06T07:19:55.762Z,4268.00
2023-03-06T07:20:55.749Z,4272.00
2023-03-06T07:21:55.766Z,4296.00
2023-03-06T07:22:55.728Z,4344.00
2023-03-06T07:23:55.713Z,4564.00
2023-03-06T07:24:55.702Z,4784.00
2023-03-06T07:25:55.702Z,4876.00
2023-03-06T07:26:55.687Z,5144.00
2023-03-06T07:27:55.732Z,5552.00
2023-03-06T07:28:55.698Z,5972.00
2023-03-06T07:29:55.650Z,6328.00
2023-03-06T07:30:55.672Z,6524.00
2023-03-06T07:31:55.630Z,6792.00
2023-03-06T07:32:55.631Z,6612.00
2023-03-06T07:33:55.652Z,6440.00
2023-03-06T07:35:12.943Z,7008.00
2023-03-06T07:35:56.591Z,7980.00
2023-03-06T07:36:55.571Z,8652.00
2023-03-06T07:37:55.568Z,7948.00
2023-03-06T07:38:55.554Z,6700.00
2023-03-06T07:39:55.563Z,6116.00
2023-03-06T07:40:55.540Z,6076.00
2023-03-06T07:41:55.542Z,6260.00
2023-03-06T07:42:57.741Z,6360.00
2023-03-06T07:43:56.499Z,6988.00
2023-03-06T07:44:55.485Z,7300.00
2023-03-06T07:45:55.606Z,7808.00
2023-03-06T07:46:55.539Z,8164.00
2023-03-06T07:47:55.448Z,8416.00
2023-03-06T07:48:55.434Z,8412.00
2023-03-06T07:49:55.426Z,8316.00
2023-03-06T07:50:55.413Z,7968.00
2023-03-06T07:51:55.416Z,7496.00
2023-03-06T07:52:55.386Z,6844.00
2023-03-06T07:53:55.388Z,6472.00
2023-03-06T07:54:55.367Z,6164.00
2023-03-06T07:55:55.362Z,5788.00
2023-03-06T07:56:55.366Z,5184.00
2023-03-06T07:57:55.335Z,4528.00
2023-03-06T07:58:56.148Z,4452.00
2023-03-06T07:59:55.349Z,4580.00
2023-03-06T08:00:55.299Z,4296.00
2023-03-06T08:01:55.302Z,4348.00
2023-03-06T08:02:55.341Z,4440.00
2023-03-06T08:03:55.425Z,4664.00
2023-03-06T08:04:55.254Z,4836.00
2023-03-06T08:05:55.260Z,4920.00
2023-03-06T08:06:55.236Z,5060.00
2023-03-06T08:07:55.214Z,5212.00
2023-03-06T08:08:55.234Z,5348.00
2023-03-06T08:09:55.196Z,5608.00
2023-03-06T08:10:55.175Z,5928.00
2023-03-06T08:11:55.168Z,6036.00
2023-03-06T08:12:55.152Z,6016.00
2023-03-06T08:13:55.162Z,6764.00
2023-03-06T08:14:55.143Z,6860.00
2023-03-06T08:15:55.162Z,6892.00
2023-03-06T08:16:55.113Z,6924.00
2023-03-06T08:17:55.098Z,7268.00
2023-03-06T08:18:55.081Z,7764.00
2023-03-06T08:19:55.092Z,8500.00
2023-03-06T08:20:55.063Z,8848.00
2023-03-06T08:21:55.049Z,8964.00
2023-03-06T08:22:55.042Z,8820.00
2023-03-06T08:23:55.027Z,8688.00
2023-03-06T08:24:55.016Z,8500.00
2023-03-06T08:25:55.029Z,8120.00
2023-03-06T08:26:54.989Z,7660.00
2023-03-06T08:27:54.980Z,7068.00
2023-03-06T08:28:54.972Z,6336.00
2023-03-06T08:29:54.948Z,5156.00
2023-03-06T08:30:54.996Z,4584.00
2023-03-06T08:31:54.936Z,4144.00
2023-03-06T08:32:54.916Z,3836.00
2023-03-06T08:33:54.943Z,3980.00
2023-03-06T08:34:54.903Z,4220.00
2023-03-06T08:35:54.876Z,4472.00
2023-03-06T08:36:54.878Z,4048.00
2023-03-06T08:37:54.868Z,4532.00
2023-03-06T08:38:54.854Z,5360.00
2023-03-06T08:39:54.840Z,7016.00
2023-03-06T08:40:54.821Z,8436.00
2023-03-06T08:41:54.934Z,8872.00
2023-03-06T08:42:54.797Z,8864.00
2023-03-06T08:43:54.788Z,8724.00
2023-03-06T08:44:54.767Z,8860.00
2023-03-06T08:45:54.825Z,9108.00
2023-03-06T08:46:54.757Z,9492.00
2023-03-06T08:47:54.769Z,9864.00
2023-03-06T08:48:54.731Z,9548.00
2023-03-06T08:49:54.716Z,8752.00
2023-03-06T08:50:54.700Z,8076.00
2023-03-06T08:51:54.696Z,7852.00
2023-03-06T08:52:54.675Z,8048.00
2023-03-06T08:53:54.724Z,8240.00
2023-03-06T08:54:54.656Z,8456.00
2023-03-06T08:55:54.652Z,8768.00
2023-03-06T08:56:54.635Z,9044.00
2023-03-06T08:57:54.626Z,9276.00
2023-03-06T08:58:54.609Z,9420.00
2023-03-06T08:59:54.620Z,9548.00
2023-03-06T09:00:54.665Z,9528.00
2023-03-06T09:01:54.657Z,9432.00
2023-03-06T09:02:54.565Z,9348.00
2023-03-06T09:03:54.563Z,9464.00
2023-03-06T09:04:54.538Z,9664.00
2023-03-06T09:05:54.558Z,10000.00
2023-03-06T09:06:55.537Z,10304.00
2023-03-06T09:07:54.523Z,10624.00
2023-03-06T09:08:54.499Z,11148.00
2023-03-06T09:09:54.485Z,11696.00
2023-03-06T09:11:01.564Z,12260.00
2023-03-06T09:11:56.283Z,12620.00
2023-03-06T09:12:55.009Z,13164.00
2023-03-06T09:13:54.973Z,13760.00
2023-03-06T09:14:54.432Z,14420.00
2023-03-06T09:15:54.420Z,15184.00
2023-03-06T09:16:54.463Z,15704.00
2023-03-06T09:17:54.460Z,15924.00
2023-03-06T09:18:54.398Z,16048.00
2023-03-06T09:19:54.376Z,16324.00
2023-03-06T09:20:54.369Z,16472.00
2023-03-06T09:21:54.344Z,16864.00
2023-03-06T09:22:54.366Z,17568.00
2023-03-06T09:23:54.325Z,18272.00
2023-03-06T09:24:54.317Z,19072.00
2023-03-06T09:25:54.348Z,18528.00
2023-03-06T09:26:54.299Z,17184.00
2023-03-06T09:28:10.054Z,18016.00
2023-03-06T09:28:55.307Z,16520.00
2023-03-06T09:29:54.258Z,16864.00
2023-03-06T09:30:54.341Z,16460.00
2023-03-06T09:31:54.256Z,16532.00
2023-03-06T09:32:54.228Z,16992.00
2023-03-06T09:33:54.219Z,17984.00
2023-03-06T09:34:54.220Z,17888.00
2023-03-06T09:35:54.265Z,17824.00
2023-03-06T09:36:57.036Z,17632.00
2023-03-06T09:37:54.194Z,17504.00
2023-03-06T09:38:54.169Z,17408.00
2023-03-06T09:39:54.169Z,17344.00
2023-03-06T09:40:54.153Z,17184.00
2023-03-06T09:41:54.157Z,15748.00
2023-03-06T09:42:54.128Z,13880.00
2023-03-06T09:43:54.098Z,13896.00
2023-03-06T09:44:54.121Z,14564.00
2023-03-06T09:45:54.123Z,14208.00
2023-03-06T09:46:54.078Z,13284.00
2023-03-06T09:47:54.062Z,11808.00
2023-03-06T09:48:54.058Z,10272.00
2023-03-06T09:49:54.040Z,9912.00
2023-03-06T09:50:54.083Z,9780.00
2023-03-06T09:51:54.028Z,10636.00
2023-03-06T09:52:54.000Z,12144.00
2023-03-06T09:53:53.984Z,13320.00
2023-03-06T09:54:53.982Z,11692.00
2023-03-06T09:55:54.003Z,10228.00
2023-03-06T09:56:53.974Z,10484.00
2023-03-06T09:57:53.939Z,10756.00
2023-03-06T09:58:53.934Z,9744.00
2023-03-06T09:59:53.914Z,9728.00
2023-03-06T10:00:53.917Z,10296.00
2023-03-06T10:01:53.902Z,10124.00
2023-03-06T10:02:54.005Z,10216.00
2023-03-06T10:03:53.863Z,10304.00
2023-03-06T10:04:53.910Z,11348.00
2023-03-06T10:05:53.856Z,11408.00
2023-03-06T10:06:53.842Z,12568.00
2023-03-06T10:07:53.826Z,13776.00
2023-03-06T10:08:53.853Z,14716.00
2023-03-06T10:09:53.806Z,15320.00
2023-03-06T10:10:53.792Z,14916.00
2023-03-06T10:11:53.802Z,15012.00
2023-03-06T10:12:53.773Z,14060.00
2023-03-06T10:13:53.762Z,13704.00
2023-03-06T10:14:53.762Z,13704.00
2023-03-06T10:15:53.756Z,14248.00
2023-03-06T10:16:53.731Z,14136.00
2023-03-06T10:17:53.714Z,14720.00
2023-03-06T10:18:53.713Z,14856.00
2023-03-06T10:19:53.700Z,13588.00
2023-03-06T10:20:53.698Z,13264.00
2023-03-06T10:21:53.664Z,13704.00
2023-03-06T10:23:01.366Z,13812.00
2023-03-06T10:23:54.701Z,13804.00
2023-03-06T10:24:53.646Z,13960.00
2023-03-06T10:25:53.638Z,14532.00
2023-03-06T10:26:53.699Z,14476.00
2023-03-06T10:27:53.621Z,14468.00
2023-03-06T10:28:53.593Z,14840.00
2023-03-06T10:30:02.021Z,15100.00
2023-03-06T10:30:54.611Z,15088.00
2023-03-06T10:31:53.556Z,15124.00
2023-03-06T10:32:53.586Z,15060.00
2023-03-06T10:33:53.527Z,14768.00
2023-03-06T10:34:53.536Z,14724.00
2023-03-06T10:35:53.561Z,14816.00
2023-03-06T10:36:53.526Z,14872.00
2023-03-06T10:37:53.498Z,14772.00
2023-03-06T10:38:53.511Z,14836.00
2023-03-06T10:39:53.469Z,15236.00
2023-03-06T10:40:53.464Z,15636.00
2023-03-06T10:41:53.453Z,15732.00
2023-03-06T10:43:05.088Z,15864.00
2023-03-06T10:43:54.418Z,15748.00
2023-03-06T10:44:53.410Z,15436.00
2023-03-06T10:45:53.410Z,15432.00
2023-03-06T10:46:53.524Z,15544.00
2023-03-06T10:47:53.377Z,15432.00
2023-03-06T10:48:53.379Z,15724.00
2023-03-06T10:49:53.350Z,15712.00
2023-03-06T10:50:53.348Z,15592.00
2023-03-06T10:51:53.329Z,15584.00
2023-03-06T10:52:53.327Z,15616.00
2023-03-06T10:53:53.343Z,15460.00
2023-03-06T10:54:53.321Z,15124.00
2023-03-06T10:55:53.284Z,14872.00
2023-03-06T10:56:53.293Z,14428.00
2023-03-06T10:57:53.257Z,14372.00
2023-03-06T10:58:53.248Z,14536.00
2023-03-06T10:59:53.258Z,14852.00
2023-03-06T11:00:53.238Z,14908.00
2023-03-06T11:01:53.260Z,14448.00
2023-03-06T11:02:53.204Z,13840.00
2023-03-06T11:03:53.199Z,13768.00
2023-03-06T11:04:53.265Z,14192.00
2023-03-06T11:05:53.217Z,14732.00
2023-03-06T11:06:53.160Z,14404.00
2023-03-06T11:07:53.136Z,14960.00
2023-03-06T11:08:53.146Z,15364.00
2023-03-06T11:09:53.128Z,15352.00
2023-03-06T11:10:53.136Z,16832.00
2023-03-06T11:11:53.099Z,17824.00
2023-03-06T11:12:53.089Z,18016.00
2023-03-06T11:13:53.075Z,18240.00
2023-03-06T11:14:53.067Z,18560.00
2023-03-06T11:15:53.072Z,17440.00
2023-03-06T11:16:53.144Z,15496.00
2023-03-06T11:17:53.279Z,14320.00
2023-03-06T11:18:53.016Z,13896.00
2023-03-06T11:19:53.008Z,14224.00
2023-03-06T11:20:53.285Z,14972.00
2023-03-06T11:21:52.986Z,15176.00
2023-03-06T11:22:53.035Z,14948.00
2023-03-06T11:23:52.960Z,13964.00
2023-03-06T11:24:52.954Z,12812.00
2023-03-06T11:25:52.947Z,11900.00
2023-03-06T11:26:52.939Z,11652.00
2023-03-06T11:27:52.920Z,11580.00
2023-03-06T11:28:52.987Z,11924.00
2023-03-06T11:29:52.885Z,12240.00
2023-03-06T11:30:52.876Z,11784.00
2023-03-06T11:31:52.863Z,10384.00
2023-03-06T11:32:52.854Z,9396.00
2023-03-06T11:33:52.852Z,8976.00
2023-03-06T11:34:52.843Z,8300.00
2023-03-06T11:35:52.844Z,8432.00
2023-03-06T11:36:52.804Z,8540.00
2023-03-06T11:37:52.804Z,8708.00
2023-03-06T11:38:52.807Z,10528.00
2023-03-06T11:39:52.801Z,10436.00
2023-03-06T11:40:52.779Z,9164.00
2023-03-06T11:41:52.742Z,8816.00
2023-03-06T11:42:52.747Z,9044.00
2023-03-06T11:43:52.726Z,10576.00
2023-03-06T11:44:52.732Z,11076.00
2023-03-06T11:45:52.725Z,12204.00
2023-03-06T11:46:52.765Z,13876.00
2023-03-06T11:47:52.684Z,14216.00
2023-03-06T11:48:52.671Z,15344.00
2023-03-06T11:49:52.661Z,16464.00
2023-03-06T11:50:52.654Z,16084.00
2023-03-06T11:51:52.641Z,16524.00
2023-03-06T11:52:52.621Z,17184.00
2023-03-06T11:53:52.602Z,18208.00
2023-03-06T11:54:52.603Z,17984.00
2023-03-06T11:55:52.593Z,17088.00
2023-03-06T11:56:52.603Z,15372.00
2023-03-06T11:57:52.574Z,15600.00
2023-03-06T11:58:52.572Z,15576.00
2023-03-06T11:59:52.564Z,13564.00
2023-03-06T12:00:52.550Z,12552.00
2023-03-06T12:01:52.575Z,9572.00
2023-03-06T12:02:52.545Z,8344.00
2023-03-06T12:03:52.496Z,7700.00
2023-03-06T12:04:52.600Z,7248.00
2023-03-06T12:05:52.498Z,7092.00
2023-03-06T12:06:52.465Z,7016.00
2023-03-06T12:07:52.456Z,7048.00
2023-03-06T12:08:52.468Z,7496.00
2023-03-06T12:09:52.429Z,7336.00
2023-03-06T12:10:52.463Z,7316.00
2023-03-06T12:11:52.408Z,7428.00
2023-03-06T12:12:52.395Z,7596.00
2023-03-06T12:14:52.377Z,6828.00
2023-03-06T12:15:52.372Z,7596.00
2023-03-06T12:16:52.354Z,7868.00
2023-03-06T12:17:52.340Z,8504.00
2023-03-06T12:18:52.326Z,8828.00
2023-03-06T12:19:52.374Z,8148.00
2023-03-06T12:20:52.317Z,7976.00
2023-03-06T12:21:52.289Z,7876.00
2023-03-06T12:22:57.916Z,8028.00
2023-03-06T12:23:53.279Z,8152.00
2023-03-06T12:24:52.254Z,8420.00
2023-03-06T12:25:52.264Z,8796.00
2023-03-06T12:26:52.251Z,8400.00
2023-03-06T12:27:52.226Z,7588.00
2023-03-06T12:28:52.216Z,7320.00
2023-03-06T12:29:52.204Z,7428.00
2023-03-06T12:30:52.193Z,8396.00
2023-03-06T12:31:52.258Z,8196.00
2023-03-06T12:32:52.217Z,7600.00
2023-03-06T12:33:52.155Z,7688.00
2023-03-06T12:34:52.158Z,7560.00